Terminal Aerodrome Forecast
Issued by NWS

Home | Current Version | Previous Version | Graphics & Text | Print | Product List | Glossary On
Versions: 1 2 3 4 5 6 7 8 9 10 11 12 13 14 15 16 17 18 19 20
000
FTUS43 KGRB 211130
TAFATW
TAF
KATW 211130Z 2112/2212 18009KT P6SM BKN250 WS018/21040KT
     FM211500 18013G21KT P6SM SCT250
     FM212200 17012G18KT P6SM SCT090 WS020/21045KT
     FM220000 17011KT P6SM SCT070 WS020/21045KT
     FM220500 18011KT P6SM BKN050 WS018/21045KT PROB30 2208/2212
      -SHRA=

USA.gov is the U.S. government's official web portal to all federal, state and local government web resources and services.